CheckWX is a tool to help pilots better visualize weather data.  It is not intended as a substitute for an official pre-flight weather briefing.

12:24:17 UTC

K3L4 METAR
Grand Chenier Airport
Grand Chenier, Louisiana, USA
Current

29 mins ago

K3L4 221155Z AUTO 36005KT M1/4SM FG OVC002 15/15 A2998 RMK A01
Observed
Feb-22 @ 11:55 UTC
Wind
  • 360° at 5 KTS
Visibility
1/4 SM
Flight Rules
LIFR
Conditions
Fog
Cloud Levels
  • Overcast at 200' AGL
Temperature
15°C / 59°F
Dewpoint
15°C / 59°F
Humidity
100%
Altimeter
29.98" Hg
Pressure
1015.22 hPa
Previous

49 mins ago

K3L4 221135Z AUTO 05006KT M1/4SM FG OVC002 15/15 A2997 RMK A01
Observed
Feb-22 @ 11:35 UTC
Wind
  • 050° at 6 KTS
Visibility
1/4 SM
Flight Rules
LIFR
Conditions
Fog
Cloud Levels
  • Overcast at 200' AGL
Temperature
15°C / 59°F
Dewpoint
15°C / 59°F
Humidity
100%
Altimeter
29.97" Hg
Pressure
1014.92 hPa
Previous

1 hour ago

K3L4 221115Z AUTO 06005KT 1/4SM FG OVC002 15/15 A2998 RMK A01
Observed
Feb-22 @ 11:15 UTC
Wind
  • 060° at 5 KTS
Visibility
1/4 SM
Flight Rules
LIFR
Conditions
Fog
Cloud Levels
  • Overcast at 200' AGL
Temperature
15°C / 59°F
Dewpoint
15°C / 59°F
Humidity
100%
Altimeter
29.98" Hg
Pressure
1015.22 hPa